sensor_id;sensor_type;location;lat;lon;timestamp;temperature;humidity
59075;DHT22;44860;53.020;6.738;2024-01-07T00:01:34;0.70;99.90
59075;DHT22;44860;53.020;6.738;2024-01-07T00:04:00;0.70;99.90
59075;DHT22;44860;53.020;6.738;2024-01-07T00:06:26;0.70;99.90
59075;DHT22;44860;53.020;6.738;2024-01-07T00:08:51;0.70;99.90
59075;DHT22;44860;53.020;6.738;2024-01-07T00:11:17;0.70;99.90
59075;DHT22;44860;53.020;6.738;2024-01-07T00:13:43;0.70;99.90
59075;DHT22;44860;53.020;6.738;2024-01-07T00:16:08;0.70;99.90
59075;DHT22;44860;53.020;6.738;2024-01-07T00:18:34;0.70;99.90
59075;DHT22;44860;53.020;6.738;2024-01-07T00:21:00;0.70;99.90
59075;DHT22;44860;53.020;6.738;2024-01-07T00:23:25;0.70;99.90
59075;DHT22;44860;53.020;6.738;2024-01-07T00:25:51;0.70;99.90
59075;DHT22;44860;53.020;6.738;2024-01-07T00:28:16;0.70;99.90
59075;DHT22;44860;53.020;6.738;2024-01-07T00:30:42;0.70;99.90
59075;DHT22;44860;53.020;6.738;2024-01-07T00:33:08;0.70;99.90
59075;DHT22;44860;53.020;6.738;2024-01-07T00:35:33;0.70;99.90
59075;DHT22;44860;53.020;6.738;2024-01-07T00:37:59;0.70;99.90
59075;DHT22;44860;53.020;6.738;2024-01-07T00:40:25;0.70;99.90
59075;DHT22;44860;53.020;6.738;2024-01-07T00:42:51;0.70;99.90
59075;DHT22;44860;53.020;6.738;2024-01-07T00:45:18;0.70;99.90
59075;DHT22;44860;53.020;6.738;2024-01-07T00:47:44;0.70;99.90
59075;DHT22;44860;53.020;6.738;2024-01-07T00:50:09;0.70;99.90
59075;DHT22;44860;53.020;6.738;2024-01-07T00:52:35;0.70;99.90
59075;DHT22;44860;53.020;6.738;2024-01-07T00:55:06;0.70;99.90
59075;DHT22;44860;53.020;6.738;2024-01-07T00:57:32;0.70;99.90
59075;DHT22;44860;53.020;6.738;2024-01-07T00:59:59;0.80;99.90
59075;DHT22;44860;53.020;6.738;2024-01-07T01:02:25;0.70;99.90
59075;DHT22;44860;53.020;6.738;2024-01-07T01:04:50;0.70;99.90
59075;DHT22;44860;53.020;6.738;2024-01-07T01:07:16;0.70;99.90
59075;DHT22;44860;53.020;6.738;2024-01-07T01:09:42;0.70;99.90
59075;DHT22;44860;53.020;6.738;2024-01-07T01:12:07;0.70;99.90
59075;DHT22;44860;53.020;6.738;2024-01-07T01:14:33;0.70;99.90
59075;DHT22;44860;53.020;6.738;2024-01-07T01:16:59;0.70;99.90
59075;DHT22;44860;53.020;6.738;2024-01-07T01:19:25;0.70;99.90
59075;DHT22;44860;53.020;6.738;2024-01-07T01:21:50;0.60;99.90
59075;DHT22;44860;53.020;6.738;2024-01-07T01:24:16;0.70;99.90
59075;DHT22;44860;53.020;6.738;2024-01-07T01:26:41;0.60;99.90
59075;DHT22;44860;53.020;6.738;2024-01-07T01:29:07;0.70;99.90
59075;DHT22;44860;53.020;6.738;2024-01-07T01:31:33;0.60;99.90
59075;DHT22;44860;53.020;6.738;2024-01-07T01:33:58;0.60;99.90
59075;DHT22;44860;53.020;6.738;2024-01-07T01:36:24;0.60;99.90
59075;DHT22;44860;53.020;6.738;2024-01-07T01:38:50;0.60;99.90
59075;DHT22;44860;53.020;6.738;2024-01-07T01:41:16;0.60;99.90
59075;DHT22;44860;53.020;6.738;2024-01-07T01:43:42;0.60;99.90
59075;DHT22;44860;53.020;6.738;2024-01-07T01:46:07;0.60;99.90
59075;DHT22;44860;53.020;6.738;2024-01-07T01:48:35;0.60;99.90
59075;DHT22;44860;53.020;6.738;2024-01-07T01:51:01;0.60;99.90
59075;DHT22;44860;53.020;6.738;2024-01-07T01:53:27;0.60;99.90
59075;DHT22;44860;53.020;6.738;2024-01-07T01:55:56;0.60;99.90
59075;DHT22;44860;53.020;6.738;2024-01-07T01:58:23;0.60;99.90
59075;DHT22;44860;53.020;6.738;2024-01-07T02:00:49;0.60;99.90
59075;DHT22;44860;53.020;6.738;2024-01-07T02:03:17;0.60;99.90
59075;DHT22;44860;53.020;6.738;2024-01-07T02:05:43;0.60;99.90
59075;DHT22;44860;53.020;6.738;2024-01-07T02:08:09;0.60;99.90
59075;DHT22;44860;53.020;6.738;2024-01-07T02:10:35;0.60;99.90
59075;DHT22;44860;53.020;6.738;2024-01-07T02:13:05;0.60;99.90
59075;DHT22;44860;53.020;6.738;2024-01-07T02:15:31;0.60;99.90
59075;DHT22;44860;53.020;6.738;2024-01-07T02:17:56;0.60;99.90
59075;DHT22;44860;53.020;6.738;2024-01-07T02:20:23;0.60;99.90
59075;DHT22;44860;53.020;6.738;2024-01-07T02:22:49;0.50;99.90
59075;DHT22;44860;53.020;6.738;2024-01-07T02:25:14;0.50;99.90
59075;DHT22;44860;53.020;6.738;2024-01-07T02:27:40;0.50;99.90
59075;DHT22;44860;53.020;6.738;2024-01-07T02:30:06;0.50;99.90
59075;DHT22;44860;53.020;6.738;2024-01-07T02:32:32;0.50;99.90
59075;DHT22;44860;53.020;6.738;2024-01-07T02:35:00;0.50;99.90
59075;DHT22;44860;53.020;6.738;2024-01-07T02:37:26;0.50;99.90
59075;DHT22;44860;53.020;6.738;2024-01-07T02:39:52;0.50;99.90
59075;DHT22;44860;53.020;6.738;2024-01-07T02:42:17;0.50;99.90
59075;DHT22;44860;53.020;6.738;2024-01-07T02:44:43;0.50;99.90
59075;DHT22;44860;53.020;6.738;2024-01-07T02:47:09;0.50;99.90
59075;DHT22;44860;53.020;6.738;2024-01-07T02:49:34;0.50;99.90
59075;DHT22;44860;53.020;6.738;2024-01-07T02:52:00;0.50;99.90
59075;DHT22;44860;53.020;6.738;2024-01-07T02:54:26;0.50;99.90
59075;DHT22;44860;53.020;6.738;2024-01-07T02:56:51;0.50;99.90
59075;DHT22;44860;53.020;6.738;2024-01-07T02:59:17;0.40;99.90
59075;DHT22;44860;53.020;6.738;2024-01-07T03:01:42;0.40;99.90
59075;DHT22;44860;53.020;6.738;2024-01-07T03:04:10;0.40;99.90
59075;DHT22;44860;53.020;6.738;2024-01-07T03:06:36;0.50;99.90
59075;DHT22;44860;53.020;6.738;2024-01-07T03:09:02;0.50;99.90
59075;DHT22;44860;53.020;6.738;2024-01-07T03:11:28;0.50;99.90
59075;DHT22;44860;53.020;6.738;2024-01-07T03:13:55;0.50;99.90
59075;DHT22;44860;53.020;6.738;2024-01-07T03:16:25;0.40;99.90
59075;DHT22;44860;53.020;6.738;2024-01-07T03:18:51;0.40;99.90
59075;DHT22;44860;53.020;6.738;2024-01-07T03:21:18;0.40;99.90
59075;DHT22;44860;53.020;6.738;2024-01-07T03:23:45;0.40;99.90
59075;DHT22;44860;53.020;6.738;2024-01-07T03:26:11;0.40;99.90
59075;DHT22;44860;53.020;6.738;2024-01-07T03:28:37;0.50;99.90
59075;DHT22;44860;53.020;6.738;2024-01-07T03:31:09;0.40;99.90
59075;DHT22;44860;53.020;6.738;2024-01-07T03:33:36;0.40;99.90
59075;DHT22;44860;53.020;6.738;2024-01-07T03:36:15;0.40;99.90
59075;DHT22;44860;53.020;6.738;2024-01-07T03:38:41;0.40;99.90
59075;DHT22;44860;53.020;6.738;2024-01-07T03:41:07;0.40;99.90
59075;DHT22;44860;53.020;6.738;2024-01-07T03:43:33;0.30;99.90
59075;DHT22;44860;53.020;6.738;2024-01-07T03:45:59;0.40;99.90
59075;DHT22;44860;53.020;6.738;2024-01-07T03:48:25;0.40;99.90
59075;DHT22;44860;53.020;6.738;2024-01-07T03:50:51;0.40;99.90
59075;DHT22;44860;53.020;6.738;2024-01-07T03:53:17;0.40;99.90
59075;DHT22;44860;53.020;6.738;2024-01-07T03:55:43;0.40;99.90
59075;DHT22;44860;53.020;6.738;2024-01-07T03:58:09;0.40;99.90
59075;DHT22;44860;53.020;6.738;2024-01-07T04:00:35;0.30;99.90
59075;DHT22;44860;53.020;6.738;2024-01-07T04:03:01;0.30;99.90
59075;DHT22;44860;53.020;6.738;2024-01-07T04:05:28;0.30;99.90
59075;DHT22;44860;53.020;6.738;2024-01-07T04:07:54;0.40;99.90
59075;DHT22;44860;53.020;6.738;2024-01-07T04:10:20;0.30;99.90
59075;DHT22;44860;53.020;6.738;2024-01-07T04:12:46;0.30;99.90
59075;DHT22;44860;53.020;6.738;2024-01-07T04:15:12;0.30;99.90
59075;DHT22;44860;53.020;6.738;2024-01-07T04:17:38;0.30;99.90
59075;DHT22;44860;53.020;6.738;2024-01-07T04:20:05;0.30;99.90
59075;DHT22;44860;53.020;6.738;2024-01-07T04:22:31;0.40;99.90
59075;DHT22;44860;53.020;6.738;2024-01-07T04:24:56;0.30;99.90
59075;DHT22;44860;53.020;6.738;2024-01-07T04:27:22;0.40;99.90
59075;DHT22;44860;53.020;6.738;2024-01-07T04:29:47;0.30;99.90
59075;DHT22;44860;53.020;6.738;2024-01-07T04:32:13;0.30;99.90
59075;DHT22;44860;53.020;6.738;2024-01-07T04:34:39;0.30;99.90
59075;DHT22;44860;53.020;6.738;2024-01-07T04:37:04;0.30;99.90
59075;DHT22;44860;53.020;6.738;2024-01-07T04:39:30;0.30;99.90
59075;DHT22;44860;53.020;6.738;2024-01-07T04:41:56;0.30;99.90
59075;DHT22;44860;53.020;6.738;2024-01-07T04:44:21;0.30;99.90
59075;DHT22;44860;53.020;6.738;2024-01-07T04:46:48;0.40;99.90
59075;DHT22;44860;53.020;6.738;2024-01-07T04:49:14;0.30;99.90
59075;DHT22;44860;53.020;6.738;2024-01-07T04:51:40;0.40;99.90
59075;DHT22;44860;53.020;6.738;2024-01-07T04:54:05;0.30;99.90
59075;DHT22;44860;53.020;6.738;2024-01-07T04:56:32;0.30;99.90
59075;DHT22;44860;53.020;6.738;2024-01-07T04:58:58;0.30;99.90
59075;DHT22;44860;53.020;6.738;2024-01-07T05:01:25;0.30;99.90
59075;DHT22;44860;53.020;6.738;2024-01-07T05:03:51;0.30;99.90
59075;DHT22;44860;53.020;6.738;2024-01-07T05:06:17;0.30;99.90
59075;DHT22;44860;53.020;6.738;2024-01-07T05:08:42;0.40;99.90
59075;DHT22;44860;53.020;6.738;2024-01-07T05:11:08;0.40;99.90
59075;DHT22;44860;53.020;6.738;2024-01-07T05:13:35;0.30;99.90
59075;DHT22;44860;53.020;6.738;2024-01-07T05:16:00;0.30;99.90
59075;DHT22;44860;53.020;6.738;2024-01-07T05:18:26;0.40;99.90
59075;DHT22;44860;53.020;6.738;2024-01-07T05:20:52;0.30;99.90
59075;DHT22;44860;53.020;6.738;2024-01-07T05:23:18;0.30;99.90
59075;DHT22;44860;53.020;6.738;2024-01-07T05:25:45;0.30;99.90
59075;DHT22;44860;53.020;6.738;2024-01-07T05:28:11;0.30;99.90
59075;DHT22;44860;53.020;6.738;2024-01-07T05:30:38;0.30;99.90
59075;DHT22;44860;53.020;6.738;2024-01-07T05:33:04;0.30;99.90
59075;DHT22;44860;53.020;6.738;2024-01-07T05:35:30;0.30;99.90
59075;DHT22;44860;53.020;6.738;2024-01-07T05:37:56;0.30;99.90
59075;DHT22;44860;53.020;6.738;2024-01-07T05:40:22;0.30;99.90
59075;DHT22;44860;53.020;6.738;2024-01-07T05:42:47;0.30;99.90
59075;DHT22;44860;53.020;6.738;2024-01-07T05:45:13;0.30;99.90
59075;DHT22;44860;53.020;6.738;2024-01-07T05:47:39;0.30;99.90
59075;DHT22;44860;53.020;6.738;2024-01-07T05:50:07;0.30;99.90
59075;DHT22;44860;53.020;6.738;2024-01-07T05:52:32;0.30;99.90
59075;DHT22;44860;53.020;6.738;2024-01-07T05:55:00;0.30;99.90
59075;DHT22;44860;53.020;6.738;2024-01-07T05:57:26;0.30;99.90
59075;DHT22;44860;53.020;6.738;2024-01-07T05:59:52;0.30;99.90
59075;DHT22;44860;53.020;6.738;2024-01-07T06:02:18;0.30;99.90
59075;DHT22;44860;53.020;6.738;2024-01-07T06:04:44;0.30;99.90
59075;DHT22;44860;53.020;6.738;2024-01-07T06:07:09;0.30;99.90
59075;DHT22;44860;53.020;6.738;2024-01-07T06:09:35;0.30;99.90
59075;DHT22;44860;53.020;6.738;2024-01-07T06:12:01;0.30;99.90
59075;DHT22;44860;53.020;6.738;2024-01-07T06:14:27;0.30;99.90
59075;DHT22;44860;53.020;6.738;2024-01-07T06:16:52;0.30;99.90
59075;DHT22;44860;53.020;6.738;2024-01-07T06:19:18;0.30;99.90
59075;DHT22;44860;53.020;6.738;2024-01-07T06:21:44;0.30;99.90
59075;DHT22;44860;53.020;6.738;2024-01-07T06:24:10;0.30;99.90
59075;DHT22;44860;53.020;6.738;2024-01-07T06:26:36;0.30;99.90
59075;DHT22;44860;53.020;6.738;2024-01-07T06:29:02;0.20;99.90
59075;DHT22;44860;53.020;6.738;2024-01-07T06:31:27;0.30;99.90
59075;DHT22;44860;53.020;6.738;2024-01-07T06:33:53;0.30;99.90
59075;DHT22;44860;53.020;6.738;2024-01-07T06:36:21;0.20;99.90
59075;DHT22;44860;53.020;6.738;2024-01-07T06:38:47;0.30;99.90
59075;DHT22;44860;53.020;6.738;2024-01-07T06:41:14;0.30;99.90
59075;DHT22;44860;53.020;6.738;2024-01-07T06:43:40;0.30;99.90
59075;DHT22;44860;53.020;6.738;2024-01-07T06:46:05;0.20;99.90
59075;DHT22;44860;53.020;6.738;2024-01-07T06:48:31;0.20;99.90
59075;DHT22;44860;53.020;6.738;2024-01-07T06:50:57;0.30;99.90
59075;DHT22;44860;53.020;6.738;2024-01-07T06:53:23;0.30;99.90
59075;DHT22;44860;53.020;6.738;2024-01-07T06:55:49;0.30;99.90
59075;DHT22;44860;53.020;6.738;2024-01-07T06:58:14;0.30;99.90
59075;DHT22;44860;53.020;6.738;2024-01-07T07:00:40;0.20;99.90
59075;DHT22;44860;53.020;6.738;2024-01-07T07:03:08;0.20;99.90
59075;DHT22;44860;53.020;6.738;2024-01-07T07:05:33;0.20;99.90
59075;DHT22;44860;53.020;6.738;2024-01-07T07:07:59;0.20;99.90
59075;DHT22;44860;53.020;6.738;2024-01-07T07:10:25;0.20;99.90
59075;DHT22;44860;53.020;6.738;2024-01-07T07:12:51;0.20;99.90
59075;DHT22;44860;53.020;6.738;2024-01-07T07:15:17;0.20;99.90
59075;DHT22;44860;53.020;6.738;2024-01-07T07:17:43;0.20;99.90
59075;DHT22;44860;53.020;6.738;2024-01-07T07:20:09;0.20;99.90
59075;DHT22;44860;53.020;6.738;2024-01-07T07:22:34;0.20;99.90
59075;DHT22;44860;53.020;6.738;2024-01-07T07:25:00;0.20;99.90
59075;DHT22;44860;53.020;6.738;2024-01-07T07:27:26;0.20;99.90
59075;DHT22;44860;53.020;6.738;2024-01-07T07:29:52;0.20;99.90
59075;DHT22;44860;53.020;6.738;2024-01-07T07:32:17;0.20;99.90
59075;DHT22;44860;53.020;6.738;2024-01-07T07:34:43;0.10;99.90
59075;DHT22;44860;53.020;6.738;2024-01-07T07:37:09;0.10;99.90
59075;DHT22;44860;53.020;6.738;2024-01-07T07:39:35;0.20;99.90
59075;DHT22;44860;53.020;6.738;2024-01-07T07:42:01;0.10;99.90
59075;DHT22;44860;53.020;6.738;2024-01-07T07:44:27;0.10;99.90
59075;DHT22;44860;53.020;6.738;2024-01-07T07:46:53;0.10;99.90
59075;DHT22;44860;53.020;6.738;2024-01-07T07:49:18;0.10;99.90
59075;DHT22;44860;53.020;6.738;2024-01-07T07:51:44;0.00;99.90
59075;DHT22;44860;53.020;6.738;2024-01-07T07:54:10;0.00;99.90
59075;DHT22;44860;53.020;6.738;2024-01-07T07:56:35;0.00;99.90
59075;DHT22;44860;53.020;6.738;2024-01-07T07:59:02;0.00;99.90
59075;DHT22;44860;53.020;6.738;2024-01-07T08:01:28;0.00;99.90
59075;DHT22;44860;53.020;6.738;2024-01-07T08:03:54;-0.10;99.90
59075;DHT22;44860;53.020;6.738;2024-01-07T08:06:21;-0.20;99.90
59075;DHT22;44860;53.020;6.738;2024-01-07T08:08:47;-0.20;99.90
59075;DHT22;44860;53.020;6.738;2024-01-07T08:11:13;-0.20;99.90
59075;DHT22;44860;53.020;6.738;2024-01-07T08:13:39;-0.20;99.90
59075;DHT22;44860;53.020;6.738;2024-01-07T08:16:05;-0.20;99.90
59075;DHT22;44860;53.020;6.738;2024-01-07T08:18:31;-0.20;99.90
59075;DHT22;44860;53.020;6.738;2024-01-07T08:20:58;-0.20;99.90
59075;DHT22;44860;53.020;6.738;2024-01-07T08:23:26;-0.20;99.90
59075;DHT22;44860;53.020;6.738;2024-01-07T08:25:52;-0.20;99.90
59075;DHT22;44860;53.020;6.738;2024-01-07T08:28:18;-0.30;99.90
59075;DHT22;44860;53.020;6.738;2024-01-07T08:30:46;-0.20;99.90
59075;DHT22;44860;53.020;6.738;2024-01-07T08:33:11;-0.20;99.90
59075;DHT22;44860;53.020;6.738;2024-01-07T08:35:37;-0.30;99.90
59075;DHT22;44860;53.020;6.738;2024-01-07T08:38:03;-0.30;99.90
59075;DHT22;44860;53.020;6.738;2024-01-07T08:40:29;-0.30;99.90
59075;DHT22;44860;53.020;6.738;2024-01-07T08:42:55;-0.30;99.90
59075;DHT22;44860;53.020;6.738;2024-01-07T08:45:20;-0.20;99.90
59075;DHT22;44860;53.020;6.738;2024-01-07T08:47:46;-0.20;99.90
59075;DHT22;44860;53.020;6.738;2024-01-07T08:50:12;-0.20;99.90
59075;DHT22;44860;53.020;6.738;2024-01-07T08:52:38;-0.10;99.90
59075;DHT22;44860;53.020;6.738;2024-01-07T08:55:04;-0.10;99.90
59075;DHT22;44860;53.020;6.738;2024-01-07T08:57:32;-0.10;99.90
59075;DHT22;44860;53.020;6.738;2024-01-07T08:59:58;-0.10;99.90
59075;DHT22;44860;53.020;6.738;2024-01-07T09:02:26;-0.10;99.90
59075;DHT22;44860;53.020;6.738;2024-01-07T09:04:52;0.00;99.90
59075;DHT22;44860;53.020;6.738;2024-01-07T09:07:17;0.00;99.90
59075;DHT22;44860;53.020;6.738;2024-01-07T09:09:44;0.00;99.90
59075;DHT22;44860;53.020;6.738;2024-01-07T09:12:10;0.00;99.90
59075;DHT22;44860;53.020;6.738;2024-01-07T09:14:37;0.00;99.90
59075;DHT22;44860;53.020;6.738;2024-01-07T09:17:03;0.00;99.90
59075;DHT22;44860;53.020;6.738;2024-01-07T09:19:28;0.00;99.90
59075;DHT22;44860;53.020;6.738;2024-01-07T09:21:55;0.00;99.90
59075;DHT22;44860;53.020;6.738;2024-01-07T09:24:21;0.10;99.90
59075;DHT22;44860;53.020;6.738;2024-01-07T09:26:46;0.10;99.90
59075;DHT22;44860;53.020;6.738;2024-01-07T09:29:12;0.10;99.90
59075;DHT22;44860;53.020;6.738;2024-01-07T09:31:39;0.10;99.90
59075;DHT22;44860;53.020;6.738;2024-01-07T09:34:05;0.20;99.90
59075;DHT22;44860;53.020;6.738;2024-01-07T09:36:32;0.20;99.90
59075;DHT22;44860;53.020;6.738;2024-01-07T09:38:58;0.20;99.90
59075;DHT22;44860;53.020;6.738;2024-01-07T09:41:24;0.20;99.90
59075;DHT22;44860;53.020;6.738;2024-01-07T09:43:51;0.20;99.90
59075;DHT22;44860;53.020;6.738;2024-01-07T09:46:17;0.20;99.90
59075;DHT22;44860;53.020;6.738;2024-01-07T09:48:43;0.20;99.90
59075;DHT22;44860;53.020;6.738;2024-01-07T09:51:10;0.20;99.90
59075;DHT22;44860;53.020;6.738;2024-01-07T09:53:38;0.30;99.90
59075;DHT22;44860;53.020;6.738;2024-01-07T09:56:25;0.30;99.90
59075;DHT22;44860;53.020;6.738;2024-01-07T09:58:51;0.40;99.90
59075;DHT22;44860;53.020;6.738;2024-01-07T10:01:20;0.40;99.90
59075;DHT22;44860;53.020;6.738;2024-01-07T10:03:46;0.40;99.90
59075;DHT22;44860;53.020;6.738;2024-01-07T10:06:12;0.40;99.90
59075;DHT22;44860;53.020;6.738;2024-01-07T10:08:38;0.40;99.90
59075;DHT22;44860;53.020;6.738;2024-01-07T10:11:04;0.40;99.90
59075;DHT22;44860;53.020;6.738;2024-01-07T10:13:30;0.50;99.90
59075;DHT22;44860;53.020;6.738;2024-01-07T10:15:57;0.50;99.90
59075;DHT22;44860;53.020;6.738;2024-01-07T10:18:22;0.50;99.90
59075;DHT22;44860;53.020;6.738;2024-01-07T10:20:48;0.50;99.90
59075;DHT22;44860;53.020;6.738;2024-01-07T10:23:19;0.60;99.90
59075;DHT22;44860;53.020;6.738;2024-01-07T10:25:44;0.60;99.90
59075;DHT22;44860;53.020;6.738;2024-01-07T10:28:11;0.60;99.90
59075;DHT22;44860;53.020;6.738;2024-01-07T10:30:38;0.60;99.90
59075;DHT22;44860;53.020;6.738;2024-01-07T10:33:07;0.70;99.90
59075;DHT22;44860;53.020;6.738;2024-01-07T10:35:34;0.70;99.90
59075;DHT22;44860;53.020;6.738;2024-01-07T10:38:01;0.70;99.90
59075;DHT22;44860;53.020;6.738;2024-01-07T10:40:27;0.70;99.90
59075;DHT22;44860;53.020;6.738;2024-01-07T10:42:55;0.80;99.90
59075;DHT22;44860;53.020;6.738;2024-01-07T10:45:21;0.80;99.90
59075;DHT22;44860;53.020;6.738;2024-01-07T10:47:49;0.90;99.90
59075;DHT22;44860;53.020;6.738;2024-01-07T10:50:18;0.90;99.90
59075;DHT22;44860;53.020;6.738;2024-01-07T10:52:49;0.90;99.90
59075;DHT22;44860;53.020;6.738;2024-01-07T10:55:17;0.90;99.90
59075;DHT22;44860;53.020;6.738;2024-01-07T10:57:48;1.00;99.90
59075;DHT22;44860;53.020;6.738;2024-01-07T11:00:16;1.00;99.90
59075;DHT22;44860;53.020;6.738;2024-01-07T11:05:39;1.00;99.90
59075;DHT22;44860;53.020;6.738;2024-01-07T11:08:26;1.00;99.90
59075;DHT22;44860;53.020;6.738;2024-01-07T11:11:00;1.10;99.90
59075;DHT22;44860;53.020;6.738;2024-01-07T11:13:33;1.10;99.90
59075;DHT22;44860;53.020;6.738;2024-01-07T11:16:01;1.10;99.90
59075;DHT22;44860;53.020;6.738;2024-01-07T11:18:27;1.10;99.90
59075;DHT22;44860;53.020;6.738;2024-01-07T11:21:00;1.10;99.90
59075;DHT22;44860;53.020;6.738;2024-01-07T11:26:00;1.10;99.90
59075;DHT22;44860;53.020;6.738;2024-01-07T11:28:53;1.20;99.90
59075;DHT22;44860;53.020;6.738;2024-01-07T11:34:04;1.20;99.90
59075;DHT22;44860;53.020;6.738;2024-01-07T11:36:30;1.20;99.90
59075;DHT22;44860;53.020;6.738;2024-01-07T11:38:56;1.10;99.90
59075;DHT22;44860;53.020;6.738;2024-01-07T11:41:24;1.10;99.90
59075;DHT22;44860;53.020;6.738;2024-01-07T11:43:55;1.10;99.90
59075;DHT22;44860;53.020;6.738;2024-01-07T11:46:23;1.10;99.90
59075;DHT22;44860;53.020;6.738;2024-01-07T11:48:52;1.10;99.90
59075;DHT22;44860;53.020;6.738;2024-01-07T11:51:18;1.10;99.90
59075;DHT22;44860;53.020;6.738;2024-01-07T11:53:46;1.10;99.90
59075;DHT22;44860;53.020;6.738;2024-01-07T11:56:13;1.10;99.90
59075;DHT22;44860;53.020;6.738;2024-01-07T11:58:40;1.10;99.90
59075;DHT22;44860;53.020;6.738;2024-01-07T12:01:06;1.20;99.90
59075;DHT22;44860;53.020;6.738;2024-01-07T12:03:31;1.20;99.90
59075;DHT22;44860;53.020;6.738;2024-01-07T12:05:57;1.20;99.90
59075;DHT22;44860;53.020;6.738;2024-01-07T12:08:23;1.20;99.90
59075;DHT22;44860;53.020;6.738;2024-01-07T12:10:49;1.20;99.90
59075;DHT22;44860;53.020;6.738;2024-01-07T12:13:15;1.20;99.90
59075;DHT22;44860;53.020;6.738;2024-01-07T12:15:41;1.20;99.90
59075;DHT22;44860;53.020;6.738;2024-01-07T12:18:07;1.20;99.90
59075;DHT22;44860;53.020;6.738;2024-01-07T12:20:33;1.20;99.90
59075;DHT22;44860;53.020;6.738;2024-01-07T12:23:08;1.20;99.90
59075;DHT22;44860;53.020;6.738;2024-01-07T12:25:35;1.20;99.90
59075;DHT22;44860;53.020;6.738;2024-01-07T12:28:01;1.20;99.90
59075;DHT22;44860;53.020;6.738;2024-01-07T12:30:27;1.20;99.90
59075;DHT22;44860;53.020;6.738;2024-01-07T12:32:53;1.20;99.90
59075;DHT22;44860;53.020;6.738;2024-01-07T12:35:19;1.20;99.90
59075;DHT22;44860;53.020;6.738;2024-01-07T12:37:45;1.20;99.90
59075;DHT22;44860;53.020;6.738;2024-01-07T12:40:11;1.20;99.90
59075;DHT22;44860;53.020;6.738;2024-01-07T12:42:40;1.20;99.90
59075;DHT22;44860;53.020;6.738;2024-01-07T12:45:14;1.20;99.90
59075;DHT22;44860;53.020;6.738;2024-01-07T12:47:40;1.20;99.90
59075;DHT22;44860;53.020;6.738;2024-01-07T12:50:08;1.20;99.90
59075;DHT22;44860;53.020;6.738;2024-01-07T12:52:39;1.20;99.90
59075;DHT22;44860;53.020;6.738;2024-01-07T12:55:06;1.20;99.90
59075;DHT22;44860;53.020;6.738;2024-01-07T12:57:33;1.20;99.90
59075;DHT22;44860;53.020;6.738;2024-01-07T12:59:59;1.30;99.90
59075;DHT22;44860;53.020;6.738;2024-01-07T13:02:25;1.20;99.90
59075;DHT22;44860;53.020;6.738;2024-01-07T13:04:51;1.30;99.90
59075;DHT22;44860;53.020;6.738;2024-01-07T13:07:17;1.30;99.90
59075;DHT22;44860;53.020;6.738;2024-01-07T13:09:42;1.30;99.90
59075;DHT22;44860;53.020;6.738;2024-01-07T13:12:10;1.40;99.90
59075;DHT22;44860;53.020;6.738;2024-01-07T13:14:36;1.40;99.90
59075;DHT22;44860;53.020;6.738;2024-01-07T13:17:02;1.40;99.90
59075;DHT22;44860;53.020;6.738;2024-01-07T13:19:28;1.40;99.90
59075;DHT22;44860;53.020;6.738;2024-01-07T13:21:53;1.40;99.90
59075;DHT22;44860;53.020;6.738;2024-01-07T13:24:24;1.40;99.90
59075;DHT22;44860;53.020;6.738;2024-01-07T13:26:50;1.40;99.90
59075;DHT22;44860;53.020;6.738;2024-01-07T13:29:17;1.50;99.90
59075;DHT22;44860;53.020;6.738;2024-01-07T13:31:43;1.50;99.90
59075;DHT22;44860;53.020;6.738;2024-01-07T13:34:08;1.50;99.90
59075;DHT22;44860;53.020;6.738;2024-01-07T13:36:34;1.40;99.90
59075;DHT22;44860;53.020;6.738;2024-01-07T13:39:00;1.50;99.90
59075;DHT22;44860;53.020;6.738;2024-01-07T13:41:27;1.50;99.90
59075;DHT22;44860;53.020;6.738;2024-01-07T13:43:57;1.50;99.90
59075;DHT22;44860;53.020;6.738;2024-01-07T13:46:23;1.50;99.90
59075;DHT22;44860;53.020;6.738;2024-01-07T13:48:51;1.50;99.90
59075;DHT22;44860;53.020;6.738;2024-01-07T13:51:17;1.50;99.90
59075;DHT22;44860;53.020;6.738;2024-01-07T13:53:43;1.50;99.90
59075;DHT22;44860;53.020;6.738;2024-01-07T13:56:11;1.50;99.90
59075;DHT22;44860;53.020;6.738;2024-01-07T13:58:37;1.50;99.90
59075;DHT22;44860;53.020;6.738;2024-01-07T14:01:03;1.60;99.90
59075;DHT22;44860;53.020;6.738;2024-01-07T14:03:29;1.60;99.90
59075;DHT22;44860;53.020;6.738;2024-01-07T14:05:56;1.60;99.90
59075;DHT22;44860;53.020;6.738;2024-01-07T14:08:21;1.60;99.90
59075;DHT22;44860;53.020;6.738;2024-01-07T14:10:47;1.50;99.90
59075;DHT22;44860;53.020;6.738;2024-01-07T14:13:14;1.50;99.90
59075;DHT22;44860;53.020;6.738;2024-01-07T14:15:39;1.30;99.90
59075;DHT22;44860;53.020;6.738;2024-01-07T14:18:05;1.30;99.90
59075;DHT22;44860;53.020;6.738;2024-01-07T14:20:31;1.30;99.90
59075;DHT22;44860;53.020;6.738;2024-01-07T14:22:56;1.30;99.90
59075;DHT22;44860;53.020;6.738;2024-01-07T14:25:22;1.20;99.90
59075;DHT22;44860;53.020;6.738;2024-01-07T14:27:47;1.20;99.90
59075;DHT22;44860;53.020;6.738;2024-01-07T14:30:13;1.20;99.90
59075;DHT22;44860;53.020;6.738;2024-01-07T14:32:42;1.20;99.90
59075;DHT22;44860;53.020;6.738;2024-01-07T14:35:11;1.10;99.90
59075;DHT22;44860;53.020;6.738;2024-01-07T14:37:37;1.10;99.90
59075;DHT22;44860;53.020;6.738;2024-01-07T14:40:02;1.10;99.90
59075;DHT22;44860;53.020;6.738;2024-01-07T14:42:29;1.10;99.90
59075;DHT22;44860;53.020;6.738;2024-01-07T14:44:55;1.10;99.90
59075;DHT22;44860;53.020;6.738;2024-01-07T14:47:22;1.10;99.90
59075;DHT22;44860;53.020;6.738;2024-01-07T14:49:47;1.00;99.90
59075;DHT22;44860;53.020;6.738;2024-01-07T14:52:14;1.00;99.90
59075;DHT22;44860;53.020;6.738;2024-01-07T14:54:40;1.00;99.90
59075;DHT22;44860;53.020;6.738;2024-01-07T14:57:05;0.90;99.90
59075;DHT22;44860;53.020;6.738;2024-01-07T14:59:34;0.90;99.90
59075;DHT22;44860;53.020;6.738;2024-01-07T15:02:01;0.80;99.90
59075;DHT22;44860;53.020;6.738;2024-01-07T15:04:27;0.80;99.90
59075;DHT22;44860;53.020;6.738;2024-01-07T15:06:53;0.80;99.90
59075;DHT22;44860;53.020;6.738;2024-01-07T15:09:19;0.80;99.90
59075;DHT22;44860;53.020;6.738;2024-01-07T15:11:46;0.70;99.90
59075;DHT22;44860;53.020;6.738;2024-01-07T15:14:13;0.70;99.90
59075;DHT22;44860;53.020;6.738;2024-01-07T15:16:39;0.70;99.90
59075;DHT22;44860;53.020;6.738;2024-01-07T15:19:05;0.70;99.90
59075;DHT22;44860;53.020;6.738;2024-01-07T15:21:30;0.70;99.90
59075;DHT22;44860;53.020;6.738;2024-01-07T15:23:56;0.70;99.90
59075;DHT22;44860;53.020;6.738;2024-01-07T15:26:22;0.70;99.90
59075;DHT22;44860;53.020;6.738;2024-01-07T15:28:47;0.60;99.90
59075;DHT22;44860;53.020;6.738;2024-01-07T15:31:13;0.60;99.90
59075;DHT22;44860;53.020;6.738;2024-01-07T15:33:39;0.50;99.90
59075;DHT22;44860;53.020;6.738;2024-01-07T15:36:05;0.50;99.90
59075;DHT22;44860;53.020;6.738;2024-01-07T15:38:30;0.50;99.90
59075;DHT22;44860;53.020;6.738;2024-01-07T15:40:56;0.50;99.90
59075;DHT22;44860;53.020;6.738;2024-01-07T15:43:22;0.50;99.90
59075;DHT22;44860;53.020;6.738;2024-01-07T15:45:47;0.40;99.90
59075;DHT22;44860;53.020;6.738;2024-01-07T15:48:13;0.40;99.90